sensor_id;sensor_type;location;lat;lon;timestamp;pressure;altitude;pressure_sealevel;temperature;humidity
13387;BME280;6763;48.524;9.044;2022-12-18T00:02:03;98922.53;;;-4.84;51.63
13387;BME280;6763;48.524;9.044;2022-12-18T00:04:28;98923.22;;;-4.86;52.54
13387;BME280;6763;48.524;9.044;2022-12-18T00:06:54;98931.41;;;-4.90;51.58
13387;BME280;6763;48.524;9.044;2022-12-18T00:09:20;98934.44;;;-4.96;51.61
13387;BME280;6763;48.524;9.044;2022-12-18T00:11:45;98930.59;;;-5.04;51.64
13387;BME280;6763;48.524;9.044;2022-12-18T00:14:11;98936.13;;;-5.10;51.96
13387;BME280;6763;48.524;9.044;2022-12-18T00:16:37;98934.22;;;-5.14;52.06
13387;BME280;6763;48.524;9.044;2022-12-18T00:19:03;98932.28;;;-5.18;52.13
13387;BME280;6763;48.524;9.044;2022-12-18T00:21:30;98922.78;;;-5.22;52.40
13387;BME280;6763;48.524;9.044;2022-12-18T00:23:57;98928.53;;;-5.24;51.42
13387;BME280;6763;48.524;9.044;2022-12-18T00:26:29;98925.81;;;-5.27;52.16
13387;BME280;6763;48.524;9.044;2022-12-18T00:29:02;98919.81;;;-5.29;52.23
13387;BME280;6763;48.524;9.044;2022-12-18T00:31:27;98924.56;;;-5.34;51.87
13387;BME280;6763;48.524;9.044;2022-12-18T00:33:54;98930.38;;;-5.35;51.67
13387;BME280;6763;48.524;9.044;2022-12-18T00:36:22;98936.88;;;-5.38;51.90
13387;BME280;6763;48.524;9.044;2022-12-18T00:38:48;98946.03;;;-5.40;51.69
13387;BME280;6763;48.524;9.044;2022-12-18T00:41:15;98942.44;;;-5.44;51.15
13387;BME280;6763;48.524;9.044;2022-12-18T00:44:00;98938.66;;;-5.50;51.41
13387;BME280;6763;48.524;9.044;2022-12-18T00:46:26;98937.03;;;-5.50;51.28
13387;BME280;6763;48.524;9.044;2022-12-18T00:48:51;98933.63;;;-5.50;51.77
13387;BME280;6763;48.524;9.044;2022-12-18T00:51:16;98926.94;;;-5.50;51.92
13387;BME280;6763;48.524;9.044;2022-12-18T00:53:42;98930.41;;;-5.48;51.29
13387;BME280;6763;48.524;9.044;2022-12-18T00:56:07;98930.22;;;-5.51;52.15
13387;BME280;6763;48.524;9.044;2022-12-18T00:58:35;98929.06;;;-5.56;51.09
13387;BME280;6763;48.524;9.044;2022-12-18T01:01:01;98940.41;;;-5.63;51.47
13387;BME280;6763;48.524;9.044;2022-12-18T01:03:26;98947.63;;;-5.69;51.90
13387;BME280;6763;48.524;9.044;2022-12-18T01:05:51;98942.19;;;-5.75;51.39
13387;BME280;6763;48.524;9.044;2022-12-18T01:08:17;98945.19;;;-5.80;51.70
13387;BME280;6763;48.524;9.044;2022-12-18T01:10:42;98945.78;;;-5.84;51.33
13387;BME280;6763;48.524;9.044;2022-12-18T01:13:07;98954.81;;;-5.88;51.80
13387;BME280;6763;48.524;9.044;2022-12-18T01:15:33;98953.25;;;-5.86;51.42
13387;BME280;6763;48.524;9.044;2022-12-18T01:17:58;98945.84;;;-5.83;51.87
13387;BME280;6763;48.524;9.044;2022-12-18T01:20:24;98940.94;;;-5.81;51.90
13387;BME280;6763;48.524;9.044;2022-12-18T01:22:49;98941.53;;;-5.85;51.65
13387;BME280;6763;48.524;9.044;2022-12-18T01:25:14;98944.06;;;-5.85;51.37
13387;BME280;6763;48.524;9.044;2022-12-18T01:27:40;98949.78;;;-5.88;51.66
13387;BME280;6763;48.524;9.044;2022-12-18T01:30:06;98949.69;;;-5.89;51.65
13387;BME280;6763;48.524;9.044;2022-12-18T01:32:31;98942.69;;;-5.93;51.93
13387;BME280;6763;48.524;9.044;2022-12-18T01:34:57;98955.22;;;-5.95;51.61
13387;BME280;6763;48.524;9.044;2022-12-18T01:37:22;98958.19;;;-6.00;51.34
13387;BME280;6763;48.524;9.044;2022-12-18T01:39:48;98957.31;;;-6.01;51.26
13387;BME280;6763;48.524;9.044;2022-12-18T01:42:15;98958.97;;;-6.01;51.23
13387;BME280;6763;48.524;9.044;2022-12-18T01:49:49;98958.00;;;-6.03;51.27
13387;BME280;6763;48.524;9.044;2022-12-18T01:52:15;98957.91;;;-6.05;51.81
13387;BME280;6763;48.524;9.044;2022-12-18T01:54:42;98942.47;;;-6.09;51.59
13387;BME280;6763;48.524;9.044;2022-12-18T01:57:07;98952.28;;;-6.01;51.70
13387;BME280;6763;48.524;9.044;2022-12-18T01:59:33;98946.19;;;-6.04;51.59
13387;BME280;6763;48.524;9.044;2022-12-18T02:02:00;98942.13;;;-6.02;51.65
13387;BME280;6763;48.524;9.044;2022-12-18T02:04:27;98938.53;;;-6.06;51.28
13387;BME280;6763;48.524;9.044;2022-12-18T02:09:39;98936.97;;;-6.17;50.90
13387;BME280;6763;48.524;9.044;2022-12-18T02:12:21;98946.34;;;-6.14;51.64
13387;BME280;6763;48.524;9.044;2022-12-18T02:17:42;98941.03;;;-6.19;51.50
13387;BME280;6763;48.524;9.044;2022-12-18T02:20:29;98950.69;;;-6.25;51.08
13387;BME280;6763;48.524;9.044;2022-12-18T02:28:51;98955.47;;;-6.16;51.61
13387;BME280;6763;48.524;9.044;2022-12-18T02:31:25;98954.31;;;-6.08;51.60
13387;BME280;6763;48.524;9.044;2022-12-18T02:33:58;98958.00;;;-6.03;51.33
13387;BME280;6763;48.524;9.044;2022-12-18T02:36:27;98956.44;;;-6.01;51.69
13387;BME280;6763;48.524;9.044;2022-12-18T02:38:54;98954.34;;;-5.95;51.53
13387;BME280;6763;48.524;9.044;2022-12-18T02:41:23;98967.34;;;-5.89;51.91
13387;BME280;6763;48.524;9.044;2022-12-18T02:43:56;98966.13;;;-5.81;51.78
13387;BME280;6763;48.524;9.044;2022-12-18T02:46:29;98966.22;;;-5.80;51.72
13387;BME280;6763;48.524;9.044;2022-12-18T02:49:03;98970.66;;;-5.76;51.26
13387;BME280;6763;48.524;9.044;2022-12-18T02:52:18;98964.88;;;-5.75;50.78
13387;BME280;6763;48.524;9.044;2022-12-18T02:57:53;98966.69;;;-5.72;50.68
13387;BME280;6763;48.524;9.044;2022-12-18T03:00:22;98965.94;;;-5.71;51.17
13387;BME280;6763;48.524;9.044;2022-12-18T03:05:30;98965.06;;;-5.72;50.81
13387;BME280;6763;48.524;9.044;2022-12-18T03:07:58;98959.22;;;-5.71;50.56
13387;BME280;6763;48.524;9.044;2022-12-18T03:10:29;98949.06;;;-5.72;51.00
13387;BME280;6763;48.524;9.044;2022-12-18T03:13:35;98961.66;;;-5.72;50.38
13387;BME280;6763;48.524;9.044;2022-12-18T03:16:02;98951.50;;;-5.74;50.49
13387;BME280;6763;48.524;9.044;2022-12-18T03:19:18;98962.75;;;-5.69;51.30
13387;BME280;6763;48.524;9.044;2022-12-18T03:21:29;98964.47;;;-5.68;50.42
13387;BME280;6763;48.524;9.044;2022-12-18T03:23:57;98959.63;;;-5.65;50.91
13387;BME280;6763;48.524;9.044;2022-12-18T03:26:25;98959.72;;;-5.63;51.14
13387;BME280;6763;48.524;9.044;2022-12-18T03:29:06;98963.22;;;-5.61;51.00
13387;BME280;6763;48.524;9.044;2022-12-18T03:31:37;98961.56;;;-5.60;50.67
13387;BME280;6763;48.524;9.044;2022-12-18T03:34:09;98955.72;;;-5.59;50.78
13387;BME280;6763;48.524;9.044;2022-12-18T03:36:38;98959.91;;;-5.60;51.09
13387;BME280;6763;48.524;9.044;2022-12-18T03:39:03;98958.53;;;-5.55;51.17
13387;BME280;6763;48.524;9.044;2022-12-18T03:41:44;98964.44;;;-5.54;50.56
13387;BME280;6763;48.524;9.044;2022-12-18T03:49:48;98965.53;;;-5.51;51.34
13387;BME280;6763;48.524;9.044;2022-12-18T03:52:36;98967.38;;;-5.48;50.89
13387;BME280;6763;48.524;9.044;2022-12-18T03:55:04;98960.00;;;-5.45;51.08
13387;BME280;6763;48.524;9.044;2022-12-18T03:57:31;98961.03;;;-5.42;51.16
13387;BME280;6763;48.524;9.044;2022-12-18T04:00:02;98951.06;;;-5.40;50.73
13387;BME280;6763;48.524;9.044;2022-12-18T04:02:29;98947.47;;;-5.44;51.14
13387;BME280;6763;48.524;9.044;2022-12-18T04:04:58;98951.34;;;-5.36;51.48
13387;BME280;6763;48.524;9.044;2022-12-18T04:07:25;98946.22;;;-5.37;51.14
13387;BME280;6763;48.524;9.044;2022-12-18T04:09:55;98957.47;;;-5.32;51.68
13387;BME280;6763;48.524;9.044;2022-12-18T04:12:24;98949.88;;;-5.32;51.84
13387;BME280;6763;48.524;9.044;2022-12-18T04:14:51;98955.97;;;-5.29;51.54
13387;BME280;6763;48.524;9.044;2022-12-18T04:17:17;98960.25;;;-5.28;51.22
13387;BME280;6763;48.524;9.044;2022-12-18T04:19:42;98948.41;;;-5.29;50.78
13387;BME280;6763;48.524;9.044;2022-12-18T04:22:09;98967.31;;;-5.22;51.83
13387;BME280;6763;48.524;9.044;2022-12-18T04:24:35;98965.94;;;-5.17;50.85
13387;BME280;6763;48.524;9.044;2022-12-18T04:27:04;98956.81;;;-5.15;51.60
13387;BME280;6763;48.524;9.044;2022-12-18T04:29:29;98955.09;;;-5.16;50.91
13387;BME280;6763;48.524;9.044;2022-12-18T04:31:54;98967.09;;;-5.12;50.72
13387;BME280;6763;48.524;9.044;2022-12-18T04:34:20;98969.03;;;-5.08;50.63
13387;BME280;6763;48.524;9.044;2022-12-18T04:36:45;98964.28;;;-5.04;51.58
13387;BME280;6763;48.524;9.044;2022-12-18T04:39:11;98961.63;;;-5.05;51.23
13387;BME280;6763;48.524;9.044;2022-12-18T04:41:37;98963.47;;;-5.03;51.08
13387;BME280;6763;48.524;9.044;2022-12-18T04:44:02;98974.44;;;-5.02;50.90
13387;BME280;6763;48.524;9.044;2022-12-18T04:46:27;98965.44;;;-4.98;51.72
13387;BME280;6763;48.524;9.044;2022-12-18T04:48:53;98958.81;;;-4.96;51.30
13387;BME280;6763;48.524;9.044;2022-12-18T04:51:18;98960.56;;;-4.95;51.42
13387;BME280;6763;48.524;9.044;2022-12-18T04:53:43;98959.34;;;-4.87;50.57
13387;BME280;6763;48.524;9.044;2022-12-18T04:56:14;98937.59;;;-4.85;51.18
13387;BME280;6763;48.524;9.044;2022-12-18T04:58:41;98940.22;;;-4.84;50.81
13387;BME280;6763;48.524;9.044;2022-12-18T05:01:08;98945.06;;;-4.87;50.66
13387;BME280;6763;48.524;9.044;2022-12-18T05:03:34;98948.28;;;-4.89;50.90
13387;BME280;6763;48.524;9.044;2022-12-18T05:06:00;98947.34;;;-4.91;50.44
13387;BME280;6763;48.524;9.044;2022-12-18T05:08:25;98947.25;;;-4.93;50.03
13387;BME280;6763;48.524;9.044;2022-12-18T05:11:05;98947.34;;;-4.91;50.98
13387;BME280;6763;48.524;9.044;2022-12-18T05:13:33;98941.22;;;-4.95;50.80
13387;BME280;6763;48.524;9.044;2022-12-18T05:15:59;98950.72;;;-4.91;50.04
13387;BME280;6763;48.524;9.044;2022-12-18T05:18:25;98956.81;;;-4.87;50.87
13387;BME280;6763;48.524;9.044;2022-12-18T05:20:51;98954.28;;;-4.87;50.90
13387;BME280;6763;48.524;9.044;2022-12-18T05:23:16;98959.63;;;-4.83;50.82
13387;BME280;6763;48.524;9.044;2022-12-18T05:25:42;98943.44;;;-4.86;50.51
13387;BME280;6763;48.524;9.044;2022-12-18T05:28:07;98945.19;;;-4.85;50.00
13387;BME280;6763;48.524;9.044;2022-12-18T05:30:33;98947.34;;;-4.91;51.02
13387;BME280;6763;48.524;9.044;2022-12-18T05:32:58;98940.63;;;-4.91;49.71
13387;BME280;6763;48.524;9.044;2022-12-18T05:35:24;98944.72;;;-4.93;51.07
13387;BME280;6763;48.524;9.044;2022-12-18T05:37:50;98949.47;;;-4.97;51.07
13387;BME280;6763;48.524;9.044;2022-12-18T05:40:15;98956.00;;;-5.01;49.86
13387;BME280;6763;48.524;9.044;2022-12-18T05:42:40;98955.81;;;-5.04;51.11
13387;BME280;6763;48.524;9.044;2022-12-18T05:45:06;98957.41;;;-5.06;50.59
13387;BME280;6763;48.524;9.044;2022-12-18T05:47:32;98958.94;;;-5.08;51.00
13387;BME280;6763;48.524;9.044;2022-12-18T05:49:57;98954.56;;;-5.11;49.69
13387;BME280;6763;48.524;9.044;2022-12-18T05:52:23;98949.38;;;-5.14;50.94
13387;BME280;6763;48.524;9.044;2022-12-18T05:54:49;98936.16;;;-5.23;50.62
13387;BME280;6763;48.524;9.044;2022-12-18T05:57:14;98946.84;;;-5.14;50.47
13387;BME280;6763;48.524;9.044;2022-12-18T05:59:42;98947.69;;;-5.13;50.38
13387;BME280;6763;48.524;9.044;2022-12-18T06:02:10;98954.88;;;-5.06;50.44
13387;BME280;6763;48.524;9.044;2022-12-18T06:04:35;98939.72;;;-5.06;51.46
13387;BME280;6763;48.524;9.044;2022-12-18T06:07:04;98947.06;;;-4.96;50.84
13387;BME280;6763;48.524;9.044;2022-12-18T06:09:29;98947.06;;;-4.96;50.26
13387;BME280;6763;48.524;9.044;2022-12-18T06:11:54;98954.63;;;-4.96;50.36
13387;BME280;6763;48.524;9.044;2022-12-18T06:14:20;98964.63;;;-4.97;50.42
13387;BME280;6763;48.524;9.044;2022-12-18T06:16:45;98961.91;;;-5.01;50.97
13387;BME280;6763;48.524;9.044;2022-12-18T06:19:15;98968.34;;;-5.06;50.02
13387;BME280;6763;48.524;9.044;2022-12-18T06:21:41;98967.19;;;-5.11;50.32
13387;BME280;6763;48.524;9.044;2022-12-18T06:24:08;98977.00;;;-5.15;49.58
13387;BME280;6763;48.524;9.044;2022-12-18T06:26:34;98974.91;;;-5.22;50.40
13387;BME280;6763;48.524;9.044;2022-12-18T06:29:01;98967.06;;;-5.27;50.61
13387;BME280;6763;48.524;9.044;2022-12-18T06:31:26;98968.50;;;-5.30;50.84
13387;BME280;6763;48.524;9.044;2022-12-18T06:33:52;98980.44;;;-5.28;50.83
13387;BME280;6763;48.524;9.044;2022-12-18T06:36:17;98990.91;;;-5.22;50.72
13387;BME280;6763;48.524;9.044;2022-12-18T06:38:43;98991.06;;;-5.19;51.49
13387;BME280;6763;48.524;9.044;2022-12-18T06:41:11;99003.69;;;-5.19;50.89
13387;BME280;6763;48.524;9.044;2022-12-18T06:43:37;98990.94;;;-5.35;50.66
13387;BME280;6763;48.524;9.044;2022-12-18T06:46:03;99003.34;;;-5.38;50.06
13387;BME280;6763;48.524;9.044;2022-12-18T06:48:29;98996.47;;;-5.53;50.05
13387;BME280;6763;48.524;9.044;2022-12-18T06:50:54;98999.56;;;-5.57;50.15
13387;BME280;6763;48.524;9.044;2022-12-18T06:53:20;99012.16;;;-5.57;50.16
13387;BME280;6763;48.524;9.044;2022-12-18T06:55:47;99013.06;;;-5.57;51.21
13387;BME280;6763;48.524;9.044;2022-12-18T06:58:13;99010.94;;;-5.64;50.84
13387;BME280;6763;48.524;9.044;2022-12-18T07:00:38;99012.69;;;-5.63;51.09
13387;BME280;6763;48.524;9.044;2022-12-18T07:03:04;99020.34;;;-5.61;51.35
13387;BME280;6763;48.524;9.044;2022-12-18T07:05:29;99016.16;;;-5.61;51.18
13387;BME280;6763;48.524;9.044;2022-12-18T07:07:54;99024.63;;;-5.60;51.15
13387;BME280;6763;48.524;9.044;2022-12-18T07:10:20;99018.78;;;-5.59;51.02
13387;BME280;6763;48.524;9.044;2022-12-18T07:12:48;99038.53;;;-5.52;51.09
13387;BME280;6763;48.524;9.044;2022-12-18T07:15:14;99032.66;;;-5.53;50.84
13387;BME280;6763;48.524;9.044;2022-12-18T07:17:39;99036.63;;;-5.43;51.25
13387;BME280;6763;48.524;9.044;2022-12-18T07:20:05;99031.66;;;-5.42;51.34
13387;BME280;6763;48.524;9.044;2022-12-18T07:22:31;99038.75;;;-5.36;51.32
13387;BME280;6763;48.524;9.044;2022-12-18T07:24:57;99046.63;;;-5.32;50.36
13387;BME280;6763;48.524;9.044;2022-12-18T07:27:23;99039.81;;;-5.33;51.02
13387;BME280;6763;48.524;9.044;2022-12-18T07:29:48;99042.63;;;-5.41;50.38
13387;BME280;6763;48.524;9.044;2022-12-18T07:32:17;99049.03;;;-5.46;50.16
13387;BME280;6763;48.524;9.044;2022-12-18T07:34:42;99051.28;;;-5.51;50.17
13387;BME280;6763;48.524;9.044;2022-12-18T07:37:07;99046.63;;;-5.58;50.66
13387;BME280;6763;48.524;9.044;2022-12-18T07:39:33;99039.22;;;-5.55;51.13
13387;BME280;6763;48.524;9.044;2022-12-18T07:41:58;99037.78;;;-5.51;50.37
13387;BME280;6763;48.524;9.044;2022-12-18T07:44:42;99035.47;;;-5.48;50.80
13387;BME280;6763;48.524;9.044;2022-12-18T07:47:07;99043.31;;;-5.44;50.59
13387;BME280;6763;48.524;9.044;2022-12-18T07:49:33;99034.97;;;-5.43;50.25
13387;BME280;6763;48.524;9.044;2022-12-18T07:51:58;99036.03;;;-5.39;50.17
13387;BME280;6763;48.524;9.044;2022-12-18T07:54:24;99046.31;;;-5.36;49.81
13387;BME280;6763;48.524;9.044;2022-12-18T07:56:52;99044.59;;;-5.37;49.99
13387;BME280;6763;48.524;9.044;2022-12-18T07:59:18;99037.78;;;-5.38;50.22
13387;BME280;6763;48.524;9.044;2022-12-18T08:01:43;99041.59;;;-5.45;49.51
13387;BME280;6763;48.524;9.044;2022-12-18T08:04:09;99044.28;;;-5.55;50.12
13387;BME280;6763;48.524;9.044;2022-12-18T08:06:35;99046.22;;;-5.64;49.35
13387;BME280;6763;48.524;9.044;2022-12-18T08:09:00;99037.22;;;-5.74;49.96
13387;BME280;6763;48.524;9.044;2022-12-18T08:11:27;99054.84;;;-5.74;50.03
13387;BME280;6763;48.524;9.044;2022-12-18T08:13:54;99045.03;;;-5.82;50.33
13387;BME280;6763;48.524;9.044;2022-12-18T08:16:22;99031.97;;;-5.90;50.52
13387;BME280;6763;48.524;9.044;2022-12-18T08:18:52;99036.50;;;-5.84;50.39
13387;BME280;6763;48.524;9.044;2022-12-18T08:21:19;99051.75;;;-5.70;49.77
13387;BME280;6763;48.524;9.044;2022-12-18T08:23:50;99052.03;;;-5.65;49.98
13387;BME280;6763;48.524;9.044;2022-12-18T08:26:16;99048.63;;;-5.52;50.89
13387;BME280;6763;48.524;9.044;2022-12-18T08:28:44;99037.09;;;-5.49;50.96
13387;BME280;6763;48.524;9.044;2022-12-18T08:31:12;99053.00;;;-5.37;50.48
13387;BME280;6763;48.524;9.044;2022-12-18T08:33:41;99046.63;;;-5.32;49.73
13387;BME280;6763;48.524;9.044;2022-12-18T08:36:08;99060.97;;;-5.18;49.70
13387;BME280;6763;48.524;9.044;2022-12-18T08:38:34;99059.59;;;-5.26;50.07
13387;BME280;6763;48.524;9.044;2022-12-18T08:41:00;99060.69;;;-5.22;48.82
13387;BME280;6763;48.524;9.044;2022-12-18T08:43:26;99065.03;;;-5.20;49.00
13387;BME280;6763;48.524;9.044;2022-12-18T08:46:15;99068.72;;;-5.15;49.32
13387;BME280;6763;48.524;9.044;2022-12-18T08:48:40;99056.69;;;-5.19;48.91
13387;BME280;6763;48.524;9.044;2022-12-18T08:51:12;99056.69;;;-5.19;48.67
13387;BME280;6763;48.524;9.044;2022-12-18T08:53:37;99039.13;;;-5.17;48.55
13387;BME280;6763;48.524;9.044;2022-12-18T08:56:04;99044.84;;;-5.07;49.70
13387;BME280;6763;48.524;9.044;2022-12-18T08:58:30;99036.78;;;-5.01;49.07
13387;BME280;6763;48.524;9.044;2022-12-18T09:01:01;99032.88;;;-4.96;48.70
13387;BME280;6763;48.524;9.044;2022-12-18T09:03:27;99033.25;;;-4.90;49.80
13387;BME280;6763;48.524;9.044;2022-12-18T09:05:56;99020.50;;;-4.78;48.63
13387;BME280;6763;48.524;9.044;2022-12-18T09:08:22;99024.38;;;-4.70;49.54
13387;BME280;6763;48.524;9.044;2022-12-18T09:10:51;99040.34;;;-4.57;50.00
13387;BME280;6763;48.524;9.044;2022-12-18T09:13:20;99024.50;;;-4.54;49.71
13387;BME280;6763;48.524;9.044;2022-12-18T09:15:48;99022.69;;;-4.42;49.23
13387;BME280;6763;48.524;9.044;2022-12-18T09:18:16;99026.22;;;-4.25;49.01
13387;BME280;6763;48.524;9.044;2022-12-18T09:20:41;99009.69;;;-4.20;49.86
13387;BME280;6763;48.524;9.044;2022-12-18T09:23:08;99011.06;;;-4.11;49.04
13387;BME280;6763;48.524;9.044;2022-12-18T09:25:34;99018.31;;;-4.02;49.19
13387;BME280;6763;48.524;9.044;2022-12-18T09:28:25;99000.78;;;-3.99;48.93
13387;BME280;6763;48.524;9.044;2022-12-18T09:30:52;98989.81;;;-4.00;49.59
13387;BME280;6763;48.524;9.044;2022-12-18T09:33:18;98999.28;;;-3.96;48.75
13387;BME280;6763;48.524;9.044;2022-12-18T09:35:47;99004.78;;;-3.88;48.76
13387;BME280;6763;48.524;9.044;2022-12-18T09:38:15;99003.13;;;-3.88;49.00
13387;BME280;6763;48.524;9.044;2022-12-18T09:40:57;98994.41;;;-3.78;49.10
13387;BME280;6763;48.524;9.044;2022-12-18T09:43:30;98992.03;;;-3.60;49.79
13387;BME280;6763;48.524;9.044;2022-12-18T09:46:06;98985.13;;;-3.48;49.15
13387;BME280;6763;48.524;9.044;2022-12-18T09:48:39;98982.66;;;-3.32;49.18
13387;BME280;6763;48.524;9.044;2022-12-18T09:51:12;98979.81;;;-3.22;49.02
13387;BME280;6763;48.524;9.044;2022-12-18T09:53:41;98991.47;;;-3.09;49.43
13387;BME280;6763;48.524;9.044;2022-12-18T09:56:16;99005.81;;;-2.94;49.10
13387;BME280;6763;48.524;9.044;2022-12-18T09:59:03;98984.84;;;-2.91;48.62
13387;BME280;6763;48.524;9.044;2022-12-18T10:01:32;99008.06;;;-2.68;49.31
13387;BME280;6763;48.524;9.044;2022-12-18T10:03:59;98986.81;;;-2.70;48.71
13387;BME280;6763;48.524;9.044;2022-12-18T10:06:49;99008.75;;;-2.54;48.29
13387;BME280;6763;48.524;9.044;2022-12-18T10:14:23;99001.59;;;-2.46;48.65
13387;BME280;6763;48.524;9.044;2022-12-18T10:19:51;99003.69;;;-2.38;48.26
13387;BME280;6763;48.524;9.044;2022-12-18T10:27:45;99002.09;;;-2.20;48.09
13387;BME280;6763;48.524;9.044;2022-12-18T10:30:20;98993.59;;;-2.04;48.53
13387;BME280;6763;48.524;9.044;2022-12-18T10:32:45;98989.25;;;-1.89;48.55
13387;BME280;6763;48.524;9.044;2022-12-18T10:35:23;98988.13;;;-1.78;47.82
13387;BME280;6763;48.524;9.044;2022-12-18T10:38:26;98994.59;;;-1.67;47.61
13387;BME280;6763;48.524;9.044;2022-12-18T10:43:39;98984.41;;;-1.14;47.98
13387;BME280;6763;48.524;9.044;2022-12-18T10:48:50;98986.63;;;-0.27;45.86
13387;BME280;6763;48.524;9.044;2022-12-18T10:51:27;98975.38;;;0.08;45.43
13387;BME280;6763;48.524;9.044;2022-12-18T10:53:58;98972.41;;;0.38;45.27
13387;BME280;6763;48.524;9.044;2022-12-18T10:56:26;98969.13;;;0.63;44.54
13387;BME280;6763;48.524;9.044;2022-12-18T10:59:07;98969.38;;;0.91;44.19
13387;BME280;6763;48.524;9.044;2022-12-18T11:01:55;98965.47;;;1.23;44.00
13387;BME280;6763;48.524;9.044;2022-12-18T11:09:37;98941.84;;;2.52;43.91
13387;BME280;6763;48.524;9.044;2022-12-18T11:12:15;98934.22;;;3.09;43.14
13387;BME280;6763;48.524;9.044;2022-12-18T11:14:47;98928.97;;;3.64;42.73
13387;BME280;6763;48.524;9.044;2022-12-18T11:17:31;98923.22;;;4.07;41.71
13387;BME280;6763;48.524;9.044;2022-12-18T11:22:55;98920.94;;;4.91;41.66
13387;BME280;6763;48.524;9.044;2022-12-18T11:25:23;98922.72;;;5.34;40.96
13387;BME280;6763;48.524;9.044;2022-12-18T11:27:54;98917.28;;;5.62;40.71
13387;BME280;6763;48.524;9.044;2022-12-18T11:33:00;98903.91;;;5.78;40.05
13387;BME280;6763;48.524;9.044;2022-12-18T11:35:35;98905.75;;;5.85;39.96
13387;BME280;6763;48.524;9.044;2022-12-18T11:38:10;98905.91;;;5.93;40.04
13387;BME280;6763;48.524;9.044;2022-12-18T11:40:40;98893.91;;;5.93;39.97
13387;BME280;6763;48.524;9.044;2022-12-18T11:43:14;98899.19;;;6.01;39.31
13387;BME280;6763;48.524;9.044;2022-12-18T11:45:55;98891.59;;;6.07;39.19
13387;BME280;6763;48.524;9.044;2022-12-18T11:48:25;98890.91;;;6.20;39.68
13387;BME280;6763;48.524;9.044;2022-12-18T11:50:57;98882.69;;;6.41;39.80
13387;BME280;6763;48.524;9.044;2022-12-18T11:53:25;98889.88;;;6.61;39.87
13387;BME280;6763;48.524;9.044;2022-12-18T12:01:18;98873.66;;;6.67;38.71
13387;BME280;6763;48.524;9.044;2022-12-18T12:17:55;98871.16;;;5.68;38.40
13387;BME280;6763;48.524;9.044;2022-12-18T12:20:42;98862.56;;;5.64;38.37
13387;BME280;6763;48.524;9.044;2022-12-18T12:26:07;98857.56;;;5.27;37.69
13387;BME280;6763;48.524;9.044;2022-12-18T12:29:01;98853.44;;;4.93;37.86
13387;BME280;6763;48.524;9.044;2022-12-18T12:37:11;98853.50;;;3.83;38.76
13387;BME280;6763;48.524;9.044;2022-12-18T12:39:43;98857.09;;;3.58;39.13
13387;BME280;6763;48.524;9.044;2022-12-18T12:42:18;98864.38;;;3.42;39.45
13387;BME280;6763;48.524;9.044;2022-12-18T12:45:05;98860.63;;;3.29;39.61
13387;BME280;6763;48.524;9.044;2022-12-18T12:47:35;98859.44;;;3.18;39.61
13387;BME280;6763;48.524;9.044;2022-12-18T12:50:07;98870.88;;;3.01;39.88
13387;BME280;6763;48.524;9.044;2022-12-18T12:52:46;98879.06;;;2.88;40.52
13387;BME280;6763;48.524;9.044;2022-12-18T12:55:17;98876.03;;;2.73;40.19
13387;BME280;6763;48.524;9.044;2022-12-18T12:57:54;98876.78;;;2.69;40.88
13387;BME280;6763;48.524;9.044;2022-12-18T13:00:29;98874.41;;;2.75;40.79
13387;BME280;6763;48.524;9.044;2022-12-18T13:03:01;98868.53;;;2.79;40.85
13387;BME280;6763;48.524;9.044;2022-12-18T13:05:46;98886.09;;;2.96;40.59
13387;BME280;6763;48.524;9.044;2022-12-18T13:11:44;98888.31;;;3.14;40.36
13387;BME280;6763;48.524;9.044;2022-12-18T13:14:35;98897.50;;;3.06;40.55
13387;BME280;6763;48.524;9.044;2022-12-18T13:22:48;98890.63;;;3.05;40.93
13387;BME280;6763;48.524;9.044;2022-12-18T13:25:34;98889.97;;;3.12;40.94
13387;BME280;6763;48.524;9.044;2022-12-18T13:40:55;98875.91;;;3.59;40.93
13387;BME280;6763;48.524;9.044;2022-12-18T13:48:27;98875.97;;;3.95;40.57
13387;BME280;6763;48.524;9.044;2022-12-18T13:51:00;98868.59;;;4.07;40.53
13387;BME280;6763;48.524;9.044;2022-12-18T13:53:36;98871.59;;;4.25;40.54
13387;BME280;6763;48.524;9.044;2022-12-18T13:56:04;98856.50;;;4.37;40.56
13387;BME280;6763;48.524;9.044;2022-12-18T13:58:30;98859.56;;;4.60;39.96
13387;BME280;6763;48.524;9.044;2022-12-18T14:00:58;98867.50;;;4.70;40.49
13387;BME280;6763;48.524;9.044;2022-12-18T14:03:26;98863.97;;;4.65;40.98
13387;BME280;6763;48.524;9.044;2022-12-18T14:06:05;98868.84;;;4.55;40.41
13387;BME280;6763;48.524;9.044;2022-12-18T14:08:37;98863.41;;;4.41;40.23
13387;BME280;6763;48.524;9.044;2022-12-18T14:11:05;98877.63;;;4.27;40.54
13387;BME280;6763;48.524;9.044;2022-12-18T14:13:37;98869.56;;;4.12;40.91
13387;BME280;6763;48.524;9.044;2022-12-18T14:16:06;98869.13;;;3.94;40.91
13387;BME280;6763;48.524;9.044;2022-12-18T14:18:43;98867.16;;;3.84;40.98
13387;BME280;6763;48.524;9.044;2022-12-18T14:21:18;98867.81;;;3.76;41.07
13387;BME280;6763;48.524;9.044;2022-12-18T14:23:45;98870.34;;;3.75;41.19
13387;BME280;6763;48.524;9.044;2022-12-18T14:28:48;98867.22;;;3.52;41.20
13387;BME280;6763;48.524;9.044;2022-12-18T14:31:21;98870.34;;;3.42;42.02
13387;BME280;6763;48.524;9.044;2022-12-18T14:33:48;98870.84;;;3.29;41.90
13387;BME280;6763;48.524;9.044;2022-12-18T14:36:37;98869.63;;;3.17;42.06
13387;BME280;6763;48.524;9.044;2022-12-18T14:39:04;98867.69;;;3.08;42.70
13387;BME280;6763;48.524;9.044;2022-12-18T14:41:32;98876.94;;;3.03;42.59
13387;BME280;6763;48.524;9.044;2022-12-18T14:44:05;98866.31;;;2.89;42.49
13387;BME280;6763;48.524;9.044;2022-12-18T14:46:39;98874.63;;;2.82;42.76
13387;BME280;6763;48.524;9.044;2022-12-18T14:49:31;98870.75;;;2.67;43.05
13387;BME280;6763;48.524;9.044;2022-12-18T14:52:06;98861.00;;;2.54;43.51
13387;BME280;6763;48.524;9.044;2022-12-18T14:54:46;98862.44;;;2.45;43.29
13387;BME280;6763;48.524;9.044;2022-12-18T14:57:22;98867.22;;;2.35;43.45
13387;BME280;6763;48.524;9.044;2022-12-18T14:59:51;98873.66;;;2.22;44.23
13387;BME280;6763;48.524;9.044;2022-12-18T15:02:22;98871.72;;;2.15;44.34
13387;BME280;6763;48.524;9.044;2022-12-18T15:05:00;98880.59;;;2.00;44.36
13387;BME280;6763;48.524;9.044;2022-12-18T15:07:26;98887.00;;;1.88;44.96
13387;BME280;6763;48.524;9.044;2022-12-18T15:15:47;98886.06;;;1.36;45.81
13387;BME280;6763;48.524;9.044;2022-12-18T15:18:14;98882.09;;;1.20;46.09
13387;BME280;6763;48.524;9.044;2022-12-18T15:23:48;98877.88;;;0.97;46.58
13387;BME280;6763;48.524;9.044;2022-12-18T15:26:17;98885.13;;;0.87;47.11
13387;BME280;6763;48.524;9.044;2022-12-18T15:28:56;98887.34;;;0.78;47.51
13387;BME280;6763;48.524;9.044;2022-12-18T15:31:31;98885.22;;;0.68;47.35